createdAt,value
2022-08-03T00:03:25.006Z,22.91
2022-08-03T00:09:26.569Z,22.88
2022-08-03T00:15:37.038Z,22.88
2022-08-03T00:21:38.507Z,22.88
2022-08-03T00:27:39.971Z,22.86
2022-08-03T00:33:58.180Z,22.84
2022-08-03T00:40:01.269Z,22.83
2022-08-03T00:46:05.159Z,22.82
2022-08-03T00:52:07.836Z,22.80
2022-08-03T00:58:11.947Z,22.80
2022-08-03T01:04:13.400Z,22.79
2022-08-03T01:10:14.942Z,22.79
2022-08-03T01:16:16.420Z,22.77
2022-08-03T01:22:18.052Z,22.77
2022-08-03T01:28:19.670Z,22.75
2022-08-03T01:34:21.189Z,22.77
2022-08-03T01:40:22.699Z,22.75
2022-08-03T01:46:24.253Z,22.75
2022-08-03T01:52:25.814Z,22.71
2022-08-03T01:58:27.250Z,22.72
2022-08-03T02:04:28.749Z,22.70
2022-08-03T02:10:35.185Z,22.68
2022-08-03T02:16:37.181Z,22.67
2022-08-03T02:22:38.704Z,22.67
2022-08-03T02:28:40.146Z,22.64
2022-08-03T02:34:41.605Z,22.64
2022-08-03T02:40:43.113Z,22.64
2022-08-03T02:46:44.752Z,22.64
2022-08-03T02:52:46.254Z,22.65
2022-08-03T02:58:47.786Z,22.62
2022-08-03T03:05:52.534Z,22.60
2022-08-03T03:11:10.694Z,22.58
2022-08-03T03:17:12.149Z,22.58
2022-08-03T03:23:13.580Z,22.66
2022-08-03T03:29:15.051Z,22.70
2022-08-03T03:35:16.804Z,22.62
2022-08-03T03:41:18.304Z,22.63
2022-08-03T03:47:32.715Z,22.63
2022-08-03T03:53:34.492Z,22.63
2022-08-03T03:59:35.985Z,22.64
2022-08-03T04:06:09.872Z,22.67
2022-08-03T04:12:11.328Z,22.65
2022-08-03T04:18:12.779Z,22.83
2022-08-03T04:24:14.229Z,23.19
2022-08-03T04:30:15.694Z,23.47
2022-08-03T04:36:17.218Z,23.69
2022-08-03T04:42:18.967Z,23.83
2022-08-03T04:48:20.610Z,23.98
2022-08-03T04:54:22.069Z,24.13
2022-08-03T05:00:23.565Z,24.42
2022-08-03T05:06:25.273Z,24.66
2022-08-03T05:12:32.067Z,24.58
2022-08-03T05:18:34.110Z,24.81
2022-08-03T05:24:35.566Z,24.96
2022-08-03T05:30:37.244Z,25.07
2022-08-03T05:36:39.768Z,25.19
2022-08-03T05:42:41.706Z,25.29
2022-08-03T05:48:43.270Z,25.34
2022-08-03T05:54:55.997Z,25.39
2022-08-03T06:00:59.087Z,25.28
2022-08-03T06:07:00.902Z,25.22
2022-08-03T06:13:02.429Z,25.00
2022-08-03T06:19:04.026Z,25.22
2022-08-03T06:25:08.237Z,24.90
2022-08-03T06:31:12.833Z,25.00
2022-08-03T06:37:14.272Z,24.94
2022-08-03T06:43:16.043Z,24.90
2022-08-03T06:49:17.833Z,24.91
2022-08-03T06:55:19.352Z,24.94
2022-08-03T07:01:20.954Z,25.05
2022-08-03T07:07:22.893Z,25.05
2022-08-03T07:13:24.414Z,25.03
2022-08-03T07:19:26.374Z,25.05
2022-08-03T07:25:28.035Z,25.05
2022-08-03T07:31:34.408Z,24.95
2022-08-03T07:37:36.294Z,24.97
2022-08-03T07:43:37.881Z,24.94
2022-08-03T07:49:39.481Z,24.93
2022-08-03T07:55:41.013Z,24.97
2022-08-03T08:01:42.616Z,24.84
2022-08-03T08:07:44.220Z,24.83
2022-08-03T08:13:52.366Z,24.84
2022-08-03T08:19:53.884Z,24.97
2022-08-03T08:25:55.402Z,24.79
2022-08-03T08:31:56.902Z,24.79
2022-08-03T08:37:58.548Z,24.76
2022-08-03T08:44:08.431Z,24.76
2022-08-03T08:50:15.529Z,24.79
2022-08-03T08:56:29.010Z,24.78
2022-08-03T09:02:30.527Z,24.81
2022-08-03T09:08:32.102Z,24.74
2022-08-03T09:14:39.146Z,25.39
2022-08-03T09:20:43.910Z,25.67
2022-08-03T09:26:45.438Z,25.45
2022-08-03T09:32:46.956Z,25.18
2022-08-03T09:38:48.690Z,24.95
2022-08-03T09:44:51.734Z,24.79
2022-08-03T09:50:58.440Z,24.95
2022-08-03T09:57:13.947Z,24.85
2022-08-03T10:03:15.560Z,24.85
2022-08-03T10:09:17.098Z,24.87
2022-08-03T10:16:23.605Z,24.79
2022-08-03T10:21:40.628Z,24.84
2022-08-03T10:27:42.162Z,24.91
2022-08-03T10:33:52.012Z,24.94
2022-08-03T10:39:54.198Z,24.95
2022-08-03T10:45:55.715Z,24.92
2022-08-03T10:51:57.247Z,24.96
2022-08-03T10:57:59.262Z,24.98
2022-08-03T11:04:00.795Z,24.89
2022-08-03T11:10:02.319Z,24.90
2022-08-03T11:16:07.116Z,24.88
2022-08-03T11:22:10.294Z,24.83
2022-08-03T11:28:14.408Z,24.78
2022-08-03T11:34:16.350Z,24.76
2022-08-03T11:40:17.871Z,24.76
2022-08-03T11:46:29.368Z,24.74
2022-08-03T11:52:31.485Z,24.75
2022-08-03T11:59:03.380Z,24.71
2022-08-03T12:04:54.558Z,24.76
2022-08-03T12:10:56.016Z,24.79
2022-08-03T12:16:57.491Z,24.63
2022-08-03T12:23:00.195Z,24.72
2022-08-03T12:29:01.800Z,24.73
2022-08-03T12:35:05.216Z,24.63
2022-08-03T12:41:06.871Z,24.74
2022-08-03T12:47:10.461Z,24.74
2022-08-03T12:53:12.444Z,24.80
2022-08-03T12:59:13.972Z,24.74
2022-08-03T13:05:18.052Z,24.71
2022-08-03T13:11:19.857Z,24.70
2022-08-03T13:17:21.658Z,24.78
2022-08-03T13:23:23.319Z,24.83
2022-08-03T13:29:24.785Z,24.81
2022-08-03T13:35:26.255Z,24.87
2022-08-03T13:41:31.083Z,24.85
2022-08-03T13:47:32.790Z,24.81
2022-08-03T13:53:34.263Z,24.76
2022-08-03T13:59:35.784Z,24.84
2022-08-03T14:05:39.210Z,24.88
2022-08-03T14:12:07.829Z,24.90
2022-08-03T14:18:02.541Z,25.06
2022-08-03T14:24:04.004Z,24.89
2022-08-03T14:30:05.591Z,24.84
2022-08-03T14:36:07.112Z,24.80
2022-08-03T14:42:08.658Z,24.76
2022-08-03T14:50:31.912Z,24.72
2022-08-03T14:54:31.727Z,24.68
2022-08-03T15:00:33.173Z,24.66
2022-08-03T15:06:34.697Z,24.65
2022-08-03T15:12:36.187Z,24.70
2022-08-03T15:18:37.654Z,24.56
2022-08-03T15:24:39.127Z,24.55
2022-08-03T15:30:40.603Z,24.50
2022-08-03T15:36:42.118Z,24.43
2022-08-03T15:42:43.570Z,24.56
2022-08-03T15:48:45.174Z,24.54
2022-08-03T15:54:46.705Z,24.38
2022-08-03T16:00:48.172Z,24.38
2022-08-03T16:06:49.694Z,24.35
2022-08-03T16:12:51.294Z,24.31
2022-08-03T16:18:52.741Z,24.30
2022-08-03T16:24:54.192Z,24.29
2022-08-03T16:30:55.622Z,24.28
2022-08-03T16:36:57.118Z,24.25
2022-08-03T16:42:58.600Z,24.21
2022-08-03T16:49:00.041Z,24.17
2022-08-03T16:55:02.048Z,24.14
2022-08-03T17:01:21.097Z,24.12
2022-08-03T17:07:24.220Z,24.08
2022-08-03T17:13:39.034Z,24.06
2022-08-03T17:19:41.624Z,24.03
2022-08-03T17:26:02.139Z,23.99
2022-08-03T17:32:09.773Z,23.97
2022-08-03T17:38:15.769Z,23.92
2022-08-03T17:44:33.005Z,23.87
2022-08-03T17:50:40.269Z,23.83
2022-08-03T17:56:46.397Z,23.82
2022-08-03T18:03:06.929Z,23.81
2022-08-03T18:10:04.288Z,23.80
2022-08-03T18:15:33.071Z,23.77
2022-08-03T18:22:02.123Z,23.78
2022-08-03T18:27:58.747Z,23.76
2022-08-03T18:34:32.119Z,23.26
2022-08-03T18:40:22.470Z,23.63
2022-08-03T18:46:24.307Z,23.66
2022-08-03T18:52:27.710Z,23.68
2022-08-03T18:58:29.493Z,23.77
2022-08-03T19:04:31.441Z,23.70
2022-08-03T19:10:34.929Z,23.95
2022-08-03T19:16:38.728Z,24.06
2022-08-03T19:22:45.882Z,24.04
2022-08-03T19:28:47.906Z,24.10
2022-08-03T19:34:54.118Z,24.05
2022-08-03T19:40:57.279Z,24.11
2022-08-03T19:47:01.125Z,24.07
2022-08-03T19:53:02.995Z,24.03
2022-08-03T19:59:04.992Z,24.07
2022-08-03T20:05:15.639Z,24.10
2022-08-03T20:11:17.350Z,24.01
2022-08-03T20:17:21.104Z,23.99
2022-08-03T20:23:22.828Z,23.94
2022-08-03T20:29:42.578Z,23.94
2022-08-03T20:35:48.950Z,23.94
2022-08-03T20:42:07.790Z,23.90
2022-08-03T20:48:10.451Z,23.90
2022-08-03T20:54:29.003Z,23.85
2022-08-03T21:00:32.210Z,23.78
2022-08-03T21:06:33.732Z,23.76
2022-08-03T21:12:35.392Z,23.72
2022-08-03T21:18:36.935Z,23.70
2022-08-03T21:24:38.460Z,23.67
2022-08-03T21:30:39.926Z,23.67
2022-08-03T21:36:41.399Z,23.64
2022-08-03T21:42:42.847Z,23.63
2022-08-03T21:48:44.937Z,23.64
2022-08-03T21:54:46.427Z,23.64
2022-08-03T22:00:47.907Z,23.63
2022-08-03T22:06:49.369Z,23.61
2022-08-03T22:12:50.881Z,23.57
2022-08-03T22:18:52.392Z,23.56
2022-08-03T22:24:54.033Z,23.57
2022-08-03T22:30:57.391Z,23.56
2022-08-03T22:37:00.363Z,23.56
2022-08-03T22:43:02.109Z,23.54
2022-08-03T22:49:03.598Z,23.52
2022-08-03T22:55:05.082Z,23.51
2022-08-03T23:01:06.539Z,23.54
2022-08-03T23:07:09.352Z,23.52
2022-08-03T23:13:10.783Z,23.50
2022-08-03T23:19:17.277Z,23.51
2022-08-03T23:25:27.241Z,23.47
2022-08-03T23:31:28.800Z,23.49
2022-08-03T23:37:30.316Z,23.48
2022-08-03T23:43:45.119Z,23.49
2022-08-03T23:49:53.678Z,23.48
2022-08-03T23:55:55.125Z,23.48
